createdAt,value
2023-11-19T00:00:15.511Z,4.19
2023-11-19T00:02:43.735Z,4.16
2023-11-19T00:05:13.001Z,4.20
2023-11-19T00:07:42.435Z,4.24
2023-11-19T00:10:14.002Z,4.25
2023-11-19T00:12:43.275Z,4.19
2023-11-19T00:15:12.844Z,4.26
2023-11-19T00:17:46.628Z,4.25
2023-11-19T00:20:14.759Z,4.26
2023-11-19T00:25:12.425Z,4.38
2023-11-19T00:27:38.953Z,4.29
2023-11-19T00:30:07.471Z,4.25
2023-11-19T00:32:34.401Z,4.28
2023-11-19T00:35:01.494Z,4.26
2023-11-19T00:37:28.046Z,4.23
2023-11-19T00:39:54.686Z,4.28
2023-11-19T00:42:21.662Z,4.29
2023-11-19T00:44:51.719Z,4.30
2023-11-19T00:47:21.522Z,4.32
2023-11-19T00:49:51.660Z,4.31
2023-11-19T00:52:18.632Z,4.31
2023-11-19T00:54:45.303Z,4.37
2023-11-19T00:57:11.861Z,4.37
2023-11-19T00:59:38.667Z,4.37
2023-11-19T01:02:07.220Z,4.36
2023-11-19T01:04:38.205Z,4.35
2023-11-19T01:07:05.954Z,4.37
2023-11-19T01:09:33.778Z,4.42
2023-11-19T01:12:01.660Z,4.44
2023-11-19T01:14:29.255Z,4.44
2023-11-19T01:16:56.000Z,4.40
2023-11-19T01:19:23.608Z,4.39
2023-11-19T01:21:50.987Z,4.43
2023-11-19T01:24:17.513Z,4.41
2023-11-19T01:26:46.697Z,4.41
2023-11-19T01:29:17.005Z,4.48
2023-11-19T01:31:44.294Z,4.49
2023-11-19T01:34:12.745Z,4.50
2023-11-19T01:36:40.222Z,4.60
2023-11-19T01:39:07.480Z,4.54
2023-11-19T01:41:37.599Z,4.56
2023-11-19T01:44:04.544Z,4.73
2023-11-19T01:46:33.891Z,4.64
2023-11-19T01:49:01.587Z,4.57
2023-11-19T01:51:29.156Z,4.66
2023-11-19T01:53:57.716Z,4.68
2023-11-19T01:56:26.011Z,4.66
2023-11-19T01:58:54.324Z,4.70
2023-11-19T02:01:21.484Z,4.75
2023-11-19T02:03:48.393Z,4.72
2023-11-19T02:06:16.495Z,4.69
2023-11-19T02:08:44.621Z,4.81
2023-11-19T02:11:13.101Z,4.72
2023-11-19T02:13:42.429Z,4.70
2023-11-19T02:16:12.103Z,4.75
2023-11-19T02:18:39.911Z,4.68
2023-11-19T02:21:06.813Z,4.68
2023-11-19T02:23:33.650Z,4.72
2023-11-19T02:26:09.990Z,4.73
2023-11-19T02:28:38.236Z,4.76
2023-11-19T02:31:11.025Z,4.77
2023-11-19T02:33:41.299Z,4.83
2023-11-19T02:36:09.176Z,4.86
2023-11-19T02:38:36.967Z,4.79
2023-11-19T02:41:08.015Z,4.95
2023-11-19T02:43:35.521Z,4.90
2023-11-19T02:46:15.094Z,4.96
2023-11-19T02:48:42.928Z,4.91
2023-11-19T02:51:10.916Z,4.91
2023-11-19T02:53:41.607Z,4.99
2023-11-19T02:56:37.890Z,4.94
2023-11-19T02:59:16.388Z,4.94
2023-11-19T03:01:45.152Z,4.84
2023-11-19T03:04:13.449Z,5.13
2023-11-19T03:06:40.119Z,5.14
2023-11-19T03:09:11.341Z,5.16
2023-11-19T03:11:38.310Z,5.05
2023-11-19T03:14:05.268Z,4.91
2023-11-19T03:16:31.945Z,4.85
2023-11-19T03:18:58.487Z,4.99
2023-11-19T03:21:32.352Z,4.94
2023-11-19T03:24:02.750Z,4.97
2023-11-19T03:26:29.268Z,4.91
2023-11-19T03:28:56.843Z,4.82
2023-11-19T03:31:23.534Z,4.96
2023-11-19T03:33:50.000Z,5.04
2023-11-19T03:36:16.460Z,5.12
2023-11-19T03:38:43.755Z,5.03
2023-11-19T03:41:13.969Z,5.10
2023-11-19T03:43:41.085Z,5.06
2023-11-19T03:46:20.528Z,5.07
2023-11-19T03:48:51.030Z,5.05
2023-11-19T03:51:18.633Z,5.10
2023-11-19T03:53:46.471Z,5.04
2023-11-19T03:56:13.849Z,5.04
2023-11-19T03:58:40.795Z,5.24
2023-11-19T04:01:12.490Z,5.18
2023-11-19T04:03:50.791Z,5.12
2023-11-19T04:06:17.858Z,4.98
2023-11-19T04:08:44.369Z,4.97
2023-11-19T04:11:11.738Z,5.06
2023-11-19T04:13:38.169Z,5.07
2023-11-19T04:16:05.723Z,5.03
2023-11-19T04:18:33.151Z,5.24
2023-11-19T04:20:59.631Z,5.33
2023-11-19T04:23:26.448Z,5.39
2023-11-19T04:25:52.929Z,5.30
2023-11-19T04:28:19.398Z,5.23
2023-11-19T04:30:46.531Z,5.33
2023-11-19T04:33:12.988Z,5.37
2023-11-19T04:35:39.482Z,5.40
2023-11-19T04:38:06.704Z,5.48
2023-11-19T04:40:34.485Z,5.55
2023-11-19T04:43:01.042Z,5.55
2023-11-19T04:45:27.502Z,5.67
2023-11-19T04:47:54.014Z,5.60
2023-11-19T04:50:20.515Z,5.58
2023-11-19T04:52:47.028Z,5.63
2023-11-19T04:55:15.269Z,5.65
2023-11-19T04:57:41.832Z,5.67
2023-11-19T05:02:38.567Z,5.71
2023-11-19T05:05:05.956Z,5.74
2023-11-19T05:07:32.508Z,5.86
2023-11-19T05:09:59.512Z,5.87
2023-11-19T05:12:26.042Z,5.89
2023-11-19T05:14:52.715Z,5.90
2023-11-19T05:17:20.092Z,6.02
2023-11-19T05:19:47.400Z,5.94
2023-11-19T05:22:14.137Z,6.02
2023-11-19T05:24:41.999Z,6.02
2023-11-19T05:27:09.060Z,6.03
2023-11-19T05:29:35.686Z,6.20
2023-11-19T05:32:02.295Z,6.17
2023-11-19T05:34:28.886Z,6.17
2023-11-19T05:36:55.384Z,6.17
2023-11-19T05:39:22.577Z,6.25
2023-11-19T05:41:49.022Z,6.25
2023-11-19T05:44:15.511Z,6.26
2023-11-19T05:46:44.035Z,6.25
2023-11-19T05:49:10.751Z,6.29
2023-11-19T05:51:39.719Z,6.33
2023-11-19T05:54:08.507Z,6.37
2023-11-19T05:56:34.965Z,6.45
2023-11-19T05:59:08.117Z,6.35
2023-11-19T06:01:37.763Z,6.38
2023-11-19T06:04:05.748Z,6.44
2023-11-19T06:06:32.424Z,6.48
2023-11-19T06:08:58.880Z,6.55
2023-11-19T06:11:28.078Z,6.53
2023-11-19T06:13:54.615Z,6.51
2023-11-19T06:16:21.318Z,6.48
2023-11-19T06:18:47.902Z,6.51
2023-11-19T06:21:14.528Z,6.58
2023-11-19T06:23:41.055Z,6.63
2023-11-19T06:26:07.545Z,6.63
2023-11-19T06:28:34.004Z,6.68
2023-11-19T06:31:00.669Z,6.69
2023-11-19T06:33:28.333Z,6.72
2023-11-19T06:35:55.829Z,6.75
2023-11-19T06:38:22.441Z,6.77
2023-11-19T06:40:51.916Z,6.85
2023-11-19T06:43:20.332Z,6.92
2023-11-19T06:45:46.797Z,6.91
2023-11-19T06:48:13.228Z,6.97
2023-11-19T06:50:39.889Z,7.00
2023-11-19T06:53:07.483Z,7.00
2023-11-19T06:55:34.014Z,7.01
2023-11-19T06:58:03.393Z,7.04
2023-11-19T07:00:30.630Z,7.02
2023-11-19T07:02:57.260Z,7.00
2023-11-19T07:05:25.079Z,7.01
2023-11-19T07:07:51.591Z,7.06
2023-11-19T07:10:18.070Z,7.09
2023-11-19T07:12:46.049Z,7.11
2023-11-19T07:15:13.402Z,7.06
2023-11-19T07:17:41.510Z,7.13
2023-11-19T07:20:08.674Z,7.16
2023-11-19T07:22:35.156Z,7.26
2023-11-19T07:25:02.403Z,7.30
2023-11-19T07:27:28.941Z,7.33
2023-11-19T07:29:55.518Z,7.33
2023-11-19T07:32:22.027Z,7.35
2023-11-19T07:34:48.535Z,7.40
2023-11-19T07:37:14.993Z,7.47
2023-11-19T07:39:42.606Z,7.53
2023-11-19T07:42:10.454Z,7.67
2023-11-19T07:44:37.872Z,7.85
2023-11-19T07:47:04.769Z,8.04
2023-11-19T07:49:32.058Z,8.14
2023-11-19T07:51:58.568Z,8.25
2023-11-19T07:54:25.283Z,8.33
2023-11-19T07:56:51.985Z,8.46
2023-11-19T07:59:18.563Z,8.52
2023-11-19T08:01:44.985Z,8.58
2023-11-19T08:04:11.587Z,8.61
2023-11-19T08:06:38.137Z,8.67
2023-11-19T08:09:04.843Z,8.69
2023-11-19T08:11:31.317Z,8.75
2023-11-19T08:13:58.179Z,8.78
2023-11-19T08:16:24.762Z,8.95
2023-11-19T08:18:51.333Z,8.96
2023-11-19T08:21:17.911Z,8.93
2023-11-19T08:23:44.488Z,8.98
2023-11-19T08:26:11.073Z,9.06
2023-11-19T08:28:38.572Z,9.07
2023-11-19T08:31:06.006Z,9.07
2023-11-19T08:33:33.184Z,9.10
2023-11-19T08:35:59.766Z,9.15
2023-11-19T08:41:00.712Z,9.08
2023-11-19T08:43:27.775Z,9.03
2023-11-19T08:45:54.559Z,9.03
2023-11-19T08:48:21.145Z,8.97
2023-11-19T08:50:47.691Z,8.95
2023-11-19T08:53:14.225Z,8.93
2023-11-19T08:55:40.740Z,8.96
2023-11-19T08:58:07.883Z,9.01
2023-11-19T09:00:34.340Z,9.05
2023-11-19T09:03:01.102Z,9.18
2023-11-19T09:05:27.805Z,9.30
2023-11-19T09:07:54.380Z,9.48
2023-11-19T09:10:20.821Z,9.58
2023-11-19T09:12:47.279Z,9.62
2023-11-19T09:15:14.295Z,9.63
2023-11-19T09:17:42.017Z,9.66
2023-11-19T09:20:09.595Z,9.85
2023-11-19T09:22:36.310Z,9.88
2023-11-19T09:25:02.839Z,9.93
2023-11-19T09:27:29.323Z,10.08
2023-11-19T09:29:58.769Z,10.11
2023-11-19T09:32:26.215Z,10.43
2023-11-19T09:34:52.923Z,10.62
2023-11-19T09:37:22.595Z,10.79
2023-11-19T09:39:49.320Z,10.86
2023-11-19T09:42:15.853Z,10.92
2023-11-19T09:44:44.309Z,11.01
2023-11-19T09:47:12.477Z,11.02
2023-11-19T09:49:39.922Z,11.15
2023-11-19T09:52:06.659Z,11.25
2023-11-19T09:54:35.957Z,11.28
2023-11-19T09:57:05.326Z,11.48
2023-11-19T09:59:33.083Z,11.43
2023-11-19T10:02:00.484Z,11.51
2023-11-19T10:04:31.605Z,11.49
2023-11-19T10:06:58.384Z,11.48
2023-11-19T10:09:25.009Z,11.40
2023-11-19T10:11:51.550Z,11.38
2023-11-19T10:14:23.874Z,11.35
2023-11-19T10:16:50.399Z,11.54
2023-11-19T10:19:23.296Z,11.51
2023-11-19T10:21:50.315Z,11.58
2023-11-19T10:26:46.243Z,11.62
2023-11-19T10:29:15.260Z,11.60
2023-11-19T10:31:41.710Z,11.58
2023-11-19T10:34:26.139Z,11.50
2023-11-19T10:36:52.809Z,11.60
2023-11-19T10:39:19.662Z,11.91
2023-11-19T10:41:46.227Z,12.07
2023-11-19T10:44:12.731Z,12.21
2023-11-19T10:46:42.704Z,12.20
2023-11-19T10:49:09.698Z,12.42
2023-11-19T10:51:36.271Z,12.20
2023-11-19T10:54:07.184Z,12.16
2023-11-19T10:56:35.073Z,12.29
2023-11-19T10:59:02.195Z,12.13
2023-11-19T11:01:35.948Z,12.21
2023-11-19T11:04:03.483Z,12.17
2023-11-19T11:06:31.095Z,11.99
2023-11-19T11:08:58.216Z,11.69
2023-11-19T11:11:27.286Z,11.66
2023-11-19T11:13:55.990Z,11.77
2023-11-19T11:16:23.735Z,11.81
2023-11-19T11:18:51.126Z,11.89
2023-11-19T11:21:24.029Z,11.98
2023-11-19T11:24:15.284Z,12.17
2023-11-19T11:27:01.195Z,12.07
2023-11-19T11:29:40.909Z,12.06
2023-11-19T11:32:19.855Z,12.05
2023-11-19T11:35:23.869Z,12.13
2023-11-19T11:37:51.740Z,12.24
2023-11-19T11:40:19.578Z,12.14
2023-11-19T11:42:46.325Z,12.43
2023-11-19T11:45:14.557Z,12.47
2023-11-19T11:47:44.087Z,12.46
2023-11-19T11:50:14.010Z,12.48
2023-11-19T11:52:59.345Z,12.63
2023-11-19T11:55:26.385Z,12.60
2023-11-19T11:57:53.122Z,12.74
2023-11-19T12:00:24.081Z,12.77
2023-11-19T12:02:51.052Z,12.64
2023-11-19T12:05:18.311Z,12.58
2023-11-19T12:07:56.549Z,12.62
2023-11-19T12:10:24.729Z,12.49
2023-11-19T12:12:59.165Z,12.32
2023-11-19T12:15:27.882Z,12.21
2023-11-19T12:17:57.265Z,12.17
2023-11-19T12:22:57.237Z,11.88
2023-11-19T12:25:24.417Z,12.04
2023-11-19T12:27:52.611Z,11.88
2023-11-19T12:30:24.573Z,11.72
2023-11-19T12:32:51.860Z,11.52
2023-11-19T12:35:18.395Z,11.65
2023-11-19T12:37:49.668Z,11.58
2023-11-19T12:40:21.742Z,11.83
2023-11-19T12:42:48.951Z,11.79
2023-11-19T12:45:17.565Z,11.70
2023-11-19T12:47:45.144Z,11.58
2023-11-19T12:50:11.845Z,11.61
2023-11-19T12:52:39.001Z,11.81
2023-11-19T12:55:07.658Z,11.94
2023-11-19T12:57:42.144Z,12.09
2023-11-19T13:00:22.635Z,11.96
2023-11-19T13:02:51.377Z,11.94
2023-11-19T13:05:25.037Z,11.96
2023-11-19T13:07:51.836Z,12.10
2023-11-19T13:10:20.934Z,12.18
2023-11-19T13:13:05.058Z,12.03
2023-11-19T13:15:31.973Z,12.28
2023-11-19T13:17:58.595Z,12.23
2023-11-19T13:20:25.161Z,12.18
2023-11-19T13:23:03.717Z,12.20
2023-11-19T13:25:31.277Z,12.21
2023-11-19T13:27:58.386Z,12.24
2023-11-19T13:30:28.422Z,12.24
2023-11-19T13:32:56.599Z,12.17
2023-11-19T13:35:24.137Z,12.21
2023-11-19T13:37:50.877Z,12.31
2023-11-19T13:40:17.521Z,12.26
2023-11-19T13:42:45.241Z,12.24
2023-11-19T13:45:16.051Z,12.25
2023-11-19T13:47:44.343Z,12.20
2023-11-19T13:50:12.751Z,12.26
2023-11-19T13:52:40.461Z,12.23
2023-11-19T13:55:09.475Z,12.24
2023-11-19T13:57:36.932Z,12.13
2023-11-19T14:00:13.903Z,12.08
2023-11-19T14:02:44.100Z,11.96
2023-11-19T14:05:11.996Z,12.00
2023-11-19T14:07:39.324Z,11.90
2023-11-19T14:10:07.525Z,11.81
2023-11-19T14:12:34.323Z,11.63
2023-11-19T14:15:01.393Z,11.63
2023-11-19T14:17:28.037Z,11.46
2023-11-19T14:19:54.745Z,11.24
2023-11-19T14:22:21.192Z,11.31
2023-11-19T14:24:47.684Z,11.13
2023-11-19T14:27:14.180Z,11.01
2023-11-19T14:29:41.460Z,11.07
2023-11-19T14:32:08.025Z,10.97
2023-11-19T14:34:34.544Z,10.88
2023-11-19T14:37:01.862Z,10.92
2023-11-19T14:39:30.379Z,10.84
2023-11-19T14:41:59.430Z,10.71
2023-11-19T14:44:26.205Z,10.56
2023-11-19T14:46:52.743Z,10.47
2023-11-19T14:49:19.419Z,10.33
2023-11-19T14:51:48.470Z,10.25
2023-11-19T14:54:17.009Z,10.13
2023-11-19T14:56:43.641Z,10.10
2023-11-19T14:59:10.495Z,10.01
2023-11-19T15:01:37.318Z,9.96
2023-11-19T15:04:06.060Z,9.91
2023-11-19T15:06:35.482Z,9.81
2023-11-19T15:09:02.495Z,9.79
2023-11-19T15:11:29.049Z,9.75
2023-11-19T15:13:55.728Z,9.74
2023-11-19T15:16:27.226Z,9.66
2023-11-19T15:18:53.937Z,9.68
2023-11-19T15:21:20.444Z,9.68
2023-11-19T15:23:47.013Z,9.70
2023-11-19T15:26:13.639Z,9.72
2023-11-19T15:28:40.174Z,9.74
2023-11-19T15:31:06.679Z,9.74
2023-11-19T15:33:33.246Z,9.77
2023-11-19T15:36:01.532Z,9.77
2023-11-19T15:38:28.193Z,9.77
2023-11-19T15:40:54.717Z,9.82
2023-11-19T15:43:21.434Z,9.89
2023-11-19T15:45:47.977Z,9.99
2023-11-19T15:48:14.919Z,9.96
2023-11-19T15:50:41.598Z,9.98
2023-11-19T15:53:08.101Z,10.10
2023-11-19T15:55:34.653Z,10.08
2023-11-19T15:58:01.126Z,10.09
2023-11-19T16:00:27.710Z,10.20
2023-11-19T16:02:54.774Z,10.14
2023-11-19T16:05:21.489Z,10.22
2023-11-19T16:07:48.054Z,10.27
2023-11-19T16:10:14.557Z,10.22
2023-11-19T16:12:44.069Z,10.19
2023-11-19T16:15:10.989Z,10.18
2023-11-19T16:17:39.730Z,10.09
2023-11-19T16:20:08.032Z,10.06
2023-11-19T16:22:35.043Z,9.88
2023-11-19T16:25:01.563Z,9.78
2023-11-19T16:27:29.640Z,9.66
2023-11-19T16:29:57.004Z,9.50
2023-11-19T16:32:23.646Z,9.37
2023-11-19T16:34:50.804Z,9.19
2023-11-19T16:37:17.870Z,9.11
2023-11-19T16:39:45.075Z,9.03
2023-11-19T16:42:11.566Z,8.87
2023-11-19T16:44:38.109Z,8.70
2023-11-19T16:47:04.908Z,8.57
2023-11-19T16:49:33.254Z,8.44
2023-11-19T16:52:01.923Z,8.40
2023-11-19T16:54:28.749Z,8.33
2023-11-19T16:56:55.302Z,8.28
2023-11-19T16:59:22.828Z,8.25
2023-11-19T17:01:50.020Z,8.29
2023-11-19T17:04:18.137Z,8.28
2023-11-19T17:06:48.197Z,8.33
2023-11-19T17:09:14.805Z,8.32
2023-11-19T17:11:43.358Z,8.30
2023-11-19T17:14:10.158Z,8.33
2023-11-19T17:16:38.029Z,8.38
2023-11-19T17:19:04.737Z,8.40
2023-11-19T17:21:32.044Z,8.46
2023-11-19T17:23:58.524Z,8.52
2023-11-19T17:26:44.521Z,8.57
2023-11-19T17:29:15.936Z,8.66
2023-11-19T17:31:42.768Z,8.64
2023-11-19T17:34:09.520Z,8.65
2023-11-19T17:36:36.217Z,8.63
2023-11-19T17:39:04.976Z,8.61
2023-11-19T17:41:31.976Z,8.55
2023-11-19T17:43:58.877Z,8.51
2023-11-19T17:46:25.753Z,8.46
2023-11-19T17:48:53.043Z,8.47
2023-11-19T17:51:20.443Z,8.48
2023-11-19T17:53:47.169Z,8.48
2023-11-19T17:56:13.748Z,8.56
2023-11-19T17:58:40.261Z,8.60
2023-11-19T18:01:06.836Z,8.67
2023-11-19T18:03:33.729Z,8.73
2023-11-19T18:06:00.333Z,8.80
2023-11-19T18:08:26.847Z,8.83
2023-11-19T18:10:53.341Z,8.79
2023-11-19T18:13:19.887Z,8.80
2023-11-19T18:15:46.463Z,8.79
2023-11-19T18:18:14.153Z,8.77
2023-11-19T18:20:40.934Z,8.77
2023-11-19T18:23:07.711Z,8.80
2023-11-19T18:25:34.257Z,8.82
2023-11-19T18:28:00.785Z,8.81
2023-11-19T18:30:27.593Z,8.83
2023-11-19T18:32:55.922Z,8.77
2023-11-19T18:35:25.521Z,8.81
2023-11-19T18:37:52.502Z,8.78
2023-11-19T18:40:22.326Z,8.79
2023-11-19T18:42:52.685Z,8.91
2023-11-19T18:45:22.709Z,8.90
2023-11-19T18:47:51.576Z,8.93
2023-11-19T18:50:18.482Z,8.95
2023-11-19T18:52:45.572Z,8.93
2023-11-19T18:55:12.149Z,8.89
2023-11-19T18:57:38.640Z,9.07
2023-11-19T19:00:08.123Z,9.17
2023-11-19T19:02:35.542Z,9.25
2023-11-19T19:05:02.589Z,9.31
2023-11-19T19:07:29.149Z,9.26
2023-11-19T19:09:57.264Z,9.27
2023-11-19T19:12:23.752Z,9.32
2023-11-19T19:14:50.742Z,9.35
2023-11-19T19:17:17.484Z,9.28
2023-11-19T19:19:44.113Z,9.27
2023-11-19T19:22:10.626Z,9.20
2023-11-19T19:24:38.399Z,9.17
2023-11-19T19:27:05.019Z,9.18
2023-11-19T19:29:31.763Z,9.18
2023-11-19T19:31:59.634Z,9.08
2023-11-19T19:34:27.445Z,9.01
2023-11-19T19:36:53.978Z,8.94
2023-11-19T19:39:20.440Z,8.89
2023-11-19T19:41:46.891Z,8.87
2023-11-19T19:44:16.849Z,8.73
2023-11-19T19:46:43.778Z,8.64
2023-11-19T19:49:10.349Z,8.60
2023-11-19T19:51:36.832Z,8.52
2023-11-19T19:54:04.284Z,8.43
2023-11-19T19:56:30.913Z,8.37
2023-11-19T19:58:58.471Z,8.30
2023-11-19T20:01:25.232Z,8.21
2023-11-19T20:03:51.958Z,8.16
2023-11-19T20:06:22.249Z,8.06
2023-11-19T20:08:51.713Z,8.00
2023-11-19T20:11:18.740Z,8.01
2023-11-19T20:13:45.231Z,7.99
2023-11-19T20:16:11.758Z,8.04
2023-11-19T20:18:38.232Z,8.03
2023-11-19T20:21:05.984Z,8.13
2023-11-19T20:23:33.055Z,8.20
2023-11-19T20:25:59.702Z,8.21
2023-11-19T20:28:26.214Z,8.20
2023-11-19T20:30:52.791Z,8.22
2023-11-19T20:33:19.310Z,8.39
2023-11-19T20:35:46.324Z,8.48
2023-11-19T20:38:14.113Z,8.61
2023-11-19T20:40:40.706Z,8.57
2023-11-19T20:43:07.272Z,8.61
2023-11-19T20:45:33.902Z,8.61
2023-11-19T20:48:00.561Z,8.53
2023-11-19T20:50:28.751Z,8.52
2023-11-19T20:52:57.709Z,8.43
2023-11-19T20:55:24.578Z,8.37
2023-11-19T20:57:52.015Z,8.28
2023-11-19T21:00:19.878Z,8.24
2023-11-19T21:02:46.531Z,8.13
2023-11-19T21:05:13.481Z,8.12
2023-11-19T21:07:41.271Z,8.07
2023-11-19T21:10:08.949Z,8.08
2023-11-19T21:12:35.724Z,7.98
2023-11-19T21:15:02.235Z,7.91
2023-11-19T21:17:28.831Z,7.76
2023-11-19T21:19:55.326Z,7.71
2023-11-19T21:22:21.866Z,7.72
2023-11-19T21:24:50.034Z,7.73
2023-11-19T21:27:17.756Z,7.77
2023-11-19T21:29:45.740Z,7.74
2023-11-19T21:32:12.903Z,7.77
2023-11-19T21:34:40.400Z,7.85
2023-11-19T21:37:07.595Z,7.88
2023-11-19T21:39:34.270Z,7.89
2023-11-19T21:42:00.955Z,7.93
2023-11-19T21:44:27.538Z,8.01
2023-11-19T21:46:54.038Z,8.02
2023-11-19T21:49:20.631Z,8.02
2023-11-19T21:51:47.110Z,8.16
2023-11-19T21:54:13.722Z,8.34
2023-11-19T21:56:40.352Z,8.29
2023-11-19T21:59:06.959Z,8.38
2023-11-19T22:01:33.818Z,8.52
2023-11-19T22:04:00.785Z,8.52
2023-11-19T22:06:28.160Z,8.54
2023-11-19T22:08:54.997Z,8.55
2023-11-19T22:11:25.116Z,8.67
2023-11-19T22:13:52.004Z,8.68
2023-11-19T22:16:18.827Z,8.72
2023-11-19T22:18:45.947Z,8.83
2023-11-19T22:21:12.532Z,8.79
2023-11-19T22:23:39.167Z,8.93
2023-11-19T22:26:05.630Z,8.85
2023-11-19T22:28:32.137Z,8.87
2023-11-19T22:30:58.783Z,8.86
2023-11-19T22:33:25.476Z,8.83
2023-11-19T22:35:51.953Z,8.90
2023-11-19T22:38:18.880Z,8.95
2023-11-19T22:40:45.369Z,8.88
2023-11-19T22:43:11.860Z,8.97
2023-11-19T22:45:38.398Z,8.89
2023-11-19T22:48:05.049Z,8.96
2023-11-19T22:50:32.922Z,8.97
2023-11-19T22:53:01.254Z,9.05
2023-11-19T22:55:27.822Z,9.18
2023-11-19T23:00:30.247Z,9.15
2023-11-19T23:03:04.341Z,9.34
2023-11-19T23:05:33.239Z,9.34
2023-11-19T23:08:01.803Z,9.32
2023-11-19T23:10:28.645Z,9.19
2023-11-19T23:12:58.124Z,9.20
2023-11-19T23:15:26.648Z,9.12
2023-11-19T23:17:53.675Z,9.00
2023-11-19T23:20:20.434Z,9.01
2023-11-19T23:22:47.782Z,9.10
2023-11-19T23:25:14.313Z,9.21
2023-11-19T23:27:40.879Z,9.24
2023-11-19T23:30:07.933Z,9.15
2023-11-19T23:32:35.616Z,9.09
2023-11-19T23:35:03.782Z,9.11
2023-11-19T23:37:30.287Z,9.20
2023-11-19T23:39:56.952Z,9.13
2023-11-19T23:42:23.513Z,9.18
2023-11-19T23:44:50.166Z,9.20
2023-11-19T23:47:16.626Z,9.27
2023-11-19T23:49:43.212Z,9.33
2023-11-19T23:52:10.596Z,9.32
2023-11-19T23:54:37.930Z,9.31
2023-11-19T23:57:05.209Z,9.43
2023-11-19T23:59:32.252Z,9.25
